createdAt,value
2023-04-21T00:02:54.774Z,8.18
2023-04-21T00:05:43.152Z,8.63
2023-04-21T00:08:29.270Z,8.35
2023-04-21T00:11:15.374Z,8.52
2023-04-21T00:14:01.309Z,8.23
2023-04-21T00:16:47.444Z,8.00
2023-04-21T00:19:33.908Z,8.05
2023-04-21T00:22:19.893Z,8.07
2023-04-21T00:25:06.517Z,8.20
2023-04-21T00:27:52.422Z,8.43
2023-04-21T00:30:38.181Z,8.13
2023-04-21T00:33:24.041Z,7.97
2023-04-21T00:36:10.035Z,7.00
2023-04-21T00:38:55.857Z,7.00
2023-04-21T00:41:41.652Z,7.22
2023-04-21T00:44:27.751Z,7.18
2023-04-21T00:47:13.611Z,7.22
2023-04-21T00:49:59.849Z,7.50
2023-04-21T00:52:47.293Z,7.68
2023-04-21T00:55:33.170Z,7.30
2023-04-21T00:58:19.216Z,8.00
2023-04-21T01:01:05.578Z,8.05
2023-04-21T01:03:51.956Z,7.72
2023-04-21T01:06:38.099Z,7.68
2023-04-21T01:09:24.182Z,7.95
2023-04-21T01:12:11.543Z,7.10
2023-04-21T01:14:57.807Z,7.45
2023-04-21T01:17:43.875Z,7.65
2023-04-21T01:20:31.904Z,7.82
2023-04-21T01:23:18.857Z,8.25
2023-04-21T01:26:04.902Z,6.45
2023-04-21T01:28:57.472Z,7.25
2023-04-21T01:31:44.126Z,7.43
2023-04-21T01:34:30.031Z,7.63
2023-04-21T01:37:18.880Z,7.10
2023-04-21T01:40:07.632Z,7.38
2023-04-21T01:42:53.638Z,7.28
2023-04-21T01:45:39.829Z,7.38
2023-04-21T01:48:25.528Z,7.68
2023-04-21T01:51:11.442Z,7.22
2023-04-21T01:53:57.146Z,7.65
2023-04-21T01:56:42.868Z,7.85
2023-04-21T01:59:28.873Z,7.45
2023-04-21T02:02:15.062Z,7.00
2023-04-21T02:05:00.660Z,7.07
2023-04-21T02:07:46.549Z,7.32
2023-04-21T02:10:33.784Z,8.05
2023-04-21T02:13:19.793Z,8.15
2023-04-21T02:16:13.281Z,7.25
2023-04-21T02:19:00.119Z,7.20
2023-04-21T02:21:46.615Z,8.10
2023-04-21T02:24:32.663Z,7.32
2023-04-21T02:27:18.379Z,7.63
2023-04-21T02:30:04.514Z,8.18
2023-04-21T02:32:50.439Z,7.10
2023-04-21T02:35:36.340Z,8.07
2023-04-21T02:38:21.932Z,7.93
2023-04-21T02:41:07.819Z,8.07
2023-04-21T02:43:53.939Z,7.22
2023-04-21T02:46:42.075Z,8.27
2023-04-21T02:49:27.996Z,7.93
2023-04-21T02:52:16.597Z,8.05
2023-04-21T02:55:03.468Z,8.43
2023-04-21T02:57:49.765Z,8.45
2023-04-21T03:00:36.069Z,24.52
2023-04-21T03:03:22.206Z,19.75
2023-04-21T03:06:08.681Z,12.63
2023-04-21T03:08:54.731Z,9.50
2023-04-21T03:11:40.560Z,8.38
2023-04-21T03:14:26.410Z,8.45
2023-04-21T03:17:12.108Z,8.50
2023-04-21T03:19:57.995Z,8.38
2023-04-21T03:22:43.751Z,7.60
2023-04-21T03:25:29.724Z,8.35
2023-04-21T03:28:17.023Z,7.95
2023-04-21T03:31:03.276Z,8.23
2023-04-21T03:33:49.077Z,8.30
2023-04-21T03:36:35.508Z,7.95
2023-04-21T03:39:22.248Z,8.18
2023-04-21T03:42:09.789Z,8.55
2023-04-21T03:44:55.808Z,8.15
2023-04-21T03:47:41.789Z,7.88
2023-04-21T03:50:27.552Z,7.97
2023-04-21T03:53:13.359Z,9.20
2023-04-21T03:55:59.147Z,8.10
2023-04-21T03:58:44.942Z,7.38
2023-04-21T04:01:31.253Z,7.97
2023-04-21T04:04:17.506Z,8.55
2023-04-21T04:07:03.438Z,9.07
2023-04-21T04:09:49.445Z,9.07
2023-04-21T04:12:35.067Z,9.48
2023-04-21T04:15:21.054Z,8.93
2023-04-21T04:18:07.030Z,8.48
2023-04-21T04:20:52.808Z,8.63
2023-04-21T04:23:38.589Z,7.93
2023-04-21T04:26:25.299Z,8.40
2023-04-21T04:29:11.303Z,8.93
2023-04-21T04:31:58.180Z,8.73
2023-04-21T04:34:43.946Z,9.18
2023-04-21T04:37:29.784Z,9.40
2023-04-21T04:40:15.862Z,9.52
2023-04-21T04:43:36.920Z,10.23
2023-04-21T04:46:24.860Z,10.82
2023-04-21T04:49:10.815Z,14.25
2023-04-21T04:51:56.685Z,13.02
2023-04-21T04:54:42.719Z,10.32
2023-04-21T04:57:28.417Z,10.52
2023-04-21T05:00:14.884Z,10.20
2023-04-21T05:03:00.995Z,9.70
2023-04-21T05:05:47.074Z,10.30
2023-04-21T05:08:33.624Z,9.05
2023-04-21T05:11:19.697Z,10.02
2023-04-21T05:14:05.559Z,11.38
2023-04-21T05:16:51.615Z,32.33
2023-04-21T05:19:40.099Z,17.88
2023-04-21T05:22:26.441Z,12.00
2023-04-21T05:25:15.546Z,10.82
2023-04-21T05:28:01.627Z,10.25
2023-04-21T05:30:47.331Z,10.48
2023-04-21T05:33:33.186Z,11.23
2023-04-21T05:36:20.464Z,11.07
2023-04-21T05:39:06.504Z,11.52
2023-04-21T05:41:52.572Z,11.98
2023-04-21T05:44:38.986Z,10.75
2023-04-21T05:47:25.023Z,10.40
2023-04-21T05:50:11.119Z,10.70
2023-04-21T05:52:57.064Z,10.60
2023-04-21T05:55:42.862Z,10.32
2023-04-21T05:58:28.789Z,11.18
2023-04-21T06:01:15.560Z,11.88
2023-04-21T06:04:01.506Z,11.25
2023-04-21T06:06:47.736Z,12.27
2023-04-21T06:09:33.648Z,11.10
2023-04-21T06:12:19.681Z,12.43
2023-04-21T06:15:06.083Z,12.90
2023-04-21T06:17:55.641Z,29.85
2023-04-21T06:20:42.368Z,30.90
2023-04-21T06:23:28.492Z,19.73
2023-04-21T06:26:14.230Z,14.27
2023-04-21T06:29:00.033Z,12.57
2023-04-21T06:31:46.116Z,13.93
2023-04-21T06:34:31.797Z,18.20
2023-04-21T06:37:17.860Z,34.53
2023-04-21T06:40:04.421Z,24.20
2023-04-21T06:42:50.656Z,13.77
2023-04-21T06:45:36.938Z,13.32
2023-04-21T06:48:22.633Z,12.90
2023-04-21T06:51:08.500Z,13.57
2023-04-21T06:53:54.455Z,14.00
2023-04-21T06:56:41.571Z,15.32
2023-04-21T06:59:27.285Z,13.40
2023-04-21T07:02:13.147Z,15.40
2023-04-21T07:04:59.056Z,12.50
2023-04-21T07:07:45.067Z,11.30
2023-04-21T07:10:32.088Z,9.15
2023-04-21T07:13:18.258Z,9.50
2023-04-21T07:16:11.927Z,9.70
2023-04-21T07:18:57.767Z,9.52
2023-04-21T07:21:43.708Z,10.23
2023-04-21T07:24:29.529Z,10.13
2023-04-21T07:27:15.737Z,8.15
2023-04-21T07:30:01.548Z,8.45
2023-04-21T07:32:47.210Z,8.80
2023-04-21T07:35:33.399Z,9.32
2023-04-21T07:38:19.222Z,9.32
2023-04-21T07:41:05.337Z,10.63
2023-04-21T07:43:53.683Z,8.65
2023-04-21T07:46:39.668Z,7.72
2023-04-21T07:49:25.650Z,7.18
2023-04-21T07:52:11.596Z,7.78
2023-04-21T07:54:57.352Z,6.75
2023-04-21T07:57:43.512Z,7.60
2023-04-21T08:00:29.380Z,6.47
2023-04-21T08:03:15.318Z,6.93
2023-04-21T08:06:02.137Z,6.93
2023-04-21T08:08:48.162Z,7.10
2023-04-21T08:11:33.945Z,7.38
2023-04-21T08:14:20.182Z,6.40
2023-04-21T08:17:06.323Z,7.00
2023-04-21T08:19:52.675Z,6.40
2023-04-21T08:22:38.627Z,6.50
2023-04-21T08:25:24.944Z,6.57
2023-04-21T08:28:11.108Z,7.20
2023-04-21T08:30:57.108Z,7.65
2023-04-21T08:33:54.004Z,7.72
2023-04-21T08:36:45.077Z,8.68
2023-04-21T08:39:30.798Z,6.95
2023-04-21T08:42:18.252Z,6.95
2023-04-21T08:45:06.482Z,6.03
2023-04-21T08:47:52.535Z,5.40
2023-04-21T08:50:38.610Z,6.68
2023-04-21T08:53:24.571Z,6.85
2023-04-21T08:56:11.888Z,5.57
2023-04-21T08:58:57.886Z,5.82
2023-04-21T09:02:18.094Z,5.13
2023-04-21T09:05:05.743Z,4.78
2023-04-21T09:07:53.689Z,4.28
2023-04-21T09:10:47.598Z,4.72
2023-04-21T09:13:35.378Z,4.85
2023-04-21T09:16:22.578Z,4.38
2023-04-21T09:19:18.434Z,4.72
2023-04-21T09:22:04.437Z,5.07
2023-04-21T09:24:58.185Z,4.68
2023-04-21T09:27:44.484Z,4.10
2023-04-21T09:30:30.565Z,4.50
2023-04-21T09:33:27.932Z,7.03
2023-04-21T09:36:21.036Z,4.20
2023-04-21T09:41:57.612Z,5.90
2023-04-21T09:44:52.517Z,4.55
2023-04-21T09:47:43.317Z,4.20
2023-04-21T09:53:21.392Z,7.43
2023-04-21T09:56:17.054Z,4.30
2023-04-21T09:59:07.309Z,4.00
2023-04-21T10:01:54.193Z,4.40
2023-04-21T10:04:43.178Z,4.88
2023-04-21T10:07:29.393Z,4.63
2023-04-21T10:10:28.322Z,4.07
2023-04-21T10:13:16.722Z,4.25
2023-04-21T10:16:07.962Z,4.95
2023-04-21T10:18:54.026Z,4.72
2023-04-21T10:21:39.970Z,4.20
2023-04-21T10:24:29.991Z,4.72
2023-04-21T10:27:39.708Z,4.70
2023-04-21T10:30:29.091Z,3.53
2023-04-21T10:33:18.195Z,3.10
2023-04-21T10:36:05.200Z,3.22
2023-04-21T10:39:00.162Z,3.45
2023-04-21T10:41:50.289Z,3.83
2023-04-21T10:44:36.296Z,3.60
2023-04-21T10:48:26.448Z,4.15
2023-04-21T11:05:02.623Z,3.38
2023-04-21T11:07:48.559Z,2.95
2023-04-21T11:11:44.794Z,3.47
2023-04-21T11:14:31.375Z,3.13
2023-04-21T11:22:12.545Z,3.03
2023-04-21T11:35:24.132Z,2.42
2023-04-21T11:38:10.719Z,3.20
2023-04-21T11:40:56.500Z,3.58
2023-04-21T11:43:46.049Z,3.40
2023-04-21T11:46:33.524Z,3.15
2023-04-21T11:49:19.455Z,3.00
2023-04-21T11:52:05.371Z,3.28
2023-04-21T11:55:18.069Z,3.00
2023-04-21T11:58:04.380Z,3.30
2023-04-21T12:00:51.253Z,2.38
2023-04-21T12:03:37.034Z,3.35
2023-04-21T12:06:25.491Z,2.90
2023-04-21T12:09:21.538Z,3.13
2023-04-21T12:12:17.673Z,2.50
2023-04-21T12:15:04.595Z,2.30
2023-04-21T12:17:54.690Z,2.38
2023-04-21T12:20:49.902Z,2.60
2023-04-21T12:23:35.821Z,3.00
2023-04-21T12:26:23.832Z,2.83
2023-04-21T12:29:09.580Z,2.30
2023-04-21T12:31:55.557Z,2.50
2023-04-21T12:34:41.887Z,2.78
2023-04-21T12:37:28.344Z,3.28
2023-04-21T12:40:14.052Z,3.00
2023-04-21T12:42:59.930Z,3.65
2023-04-21T12:45:49.045Z,3.53
2023-04-21T12:48:35.644Z,3.95
2023-04-21T12:51:21.982Z,3.58
2023-04-21T12:54:07.884Z,4.50
2023-04-21T12:56:54.377Z,3.72
2023-04-21T12:59:40.038Z,3.75
2023-04-21T13:02:25.907Z,3.78
2023-04-21T13:05:12.877Z,3.78
2023-04-21T13:07:58.859Z,3.28
2023-04-21T13:10:45.996Z,3.50
2023-04-21T13:13:32.070Z,5.20
2023-04-21T13:16:18.186Z,6.00
2023-04-21T13:19:04.555Z,4.47
2023-04-21T13:21:52.649Z,5.43
2023-04-21T13:24:39.960Z,4.82
2023-04-21T13:27:26.298Z,4.82
2023-04-21T13:30:13.456Z,3.90
2023-04-21T13:32:59.442Z,3.72
2023-04-21T13:35:45.536Z,3.72
2023-04-21T13:38:32.326Z,4.35
2023-04-21T13:41:18.292Z,4.20
2023-04-21T13:44:04.432Z,3.58
2023-04-21T13:46:52.583Z,3.80
2023-04-21T13:49:39.567Z,3.42
2023-04-21T13:52:26.006Z,3.40
2023-04-21T13:55:12.954Z,3.83
2023-04-21T13:58:01.975Z,4.32
2023-04-21T14:00:48.118Z,4.25
2023-04-21T14:03:34.395Z,4.90
2023-04-21T14:06:20.584Z,5.78
2023-04-21T14:09:06.680Z,5.97
2023-04-21T14:11:52.825Z,4.80
2023-04-21T14:14:39.346Z,3.78
2023-04-21T14:17:25.744Z,4.93
2023-04-21T14:20:11.990Z,3.42
2023-04-21T14:23:01.413Z,11.48
2023-04-21T14:25:48.048Z,5.03
2023-04-21T14:28:34.485Z,5.13
2023-04-21T14:31:22.030Z,4.03
2023-04-21T14:34:08.273Z,4.18
2023-04-21T14:36:54.504Z,3.53
2023-04-21T14:39:40.590Z,3.40
2023-04-21T14:42:26.504Z,3.22
2023-04-21T14:45:12.617Z,3.47
2023-04-21T14:47:59.026Z,3.72
2023-04-21T14:50:45.176Z,3.28
2023-04-21T14:53:31.713Z,2.72
2023-04-21T14:56:17.891Z,3.28
2023-04-21T14:59:04.329Z,3.78
2023-04-21T15:01:50.244Z,4.25
2023-04-21T15:04:36.683Z,5.38
2023-04-21T15:07:24.837Z,4.00
2023-04-21T15:10:11.557Z,4.20
2023-04-21T15:12:57.832Z,4.07
2023-04-21T15:15:44.602Z,4.50
2023-04-21T15:18:30.635Z,4.70
2023-04-21T15:21:16.596Z,4.32
2023-04-21T15:24:02.593Z,3.75
2023-04-21T15:26:48.285Z,3.67
2023-04-21T15:29:34.566Z,4.15
2023-04-21T15:32:21.393Z,3.42
2023-04-21T15:35:07.770Z,5.30
2023-04-21T15:37:54.168Z,5.82
2023-04-21T15:40:53.210Z,4.38
2023-04-21T15:43:48.300Z,3.47
2023-04-21T15:46:36.801Z,3.63
2023-04-21T15:49:31.931Z,4.28
2023-04-21T15:52:17.700Z,4.32
2023-04-21T15:55:03.634Z,4.45
2023-04-21T15:57:49.831Z,3.80
2023-04-21T16:00:41.981Z,3.67
2023-04-21T16:03:28.138Z,4.45
2023-04-21T16:06:14.055Z,4.90
2023-04-21T16:09:00.081Z,3.85
2023-04-21T16:11:46.320Z,5.13
2023-04-21T16:14:46.649Z,3.55
2023-04-21T16:17:38.280Z,4.32
2023-04-21T16:20:24.485Z,4.13
2023-04-21T16:23:10.428Z,4.18
2023-04-21T16:25:56.651Z,3.85
2023-04-21T16:28:42.825Z,4.90
2023-04-21T16:31:28.939Z,4.63
2023-04-21T16:34:16.242Z,4.55
2023-04-21T16:37:02.106Z,5.45
2023-04-21T16:39:48.081Z,39.80
2023-04-21T16:42:34.591Z,19.73
2023-04-21T16:45:20.581Z,30.77
2023-04-21T16:48:07.044Z,10.93
2023-04-21T16:50:54.260Z,7.85
2023-04-21T16:53:42.154Z,6.45
2023-04-21T16:56:28.318Z,6.50
2023-04-21T16:59:14.176Z,6.95
2023-04-21T17:02:00.198Z,5.88
2023-04-21T17:04:46.595Z,5.53
2023-04-21T17:07:32.566Z,5.90
2023-04-21T17:10:18.716Z,6.47
2023-04-21T17:13:06.115Z,5.63
2023-04-21T17:15:52.291Z,5.93
2023-04-21T17:18:38.644Z,5.88
2023-04-21T17:21:28.851Z,5.10
2023-04-21T17:24:21.228Z,6.07
2023-04-21T17:27:07.499Z,5.57
2023-04-21T17:29:54.063Z,5.25
2023-04-21T17:32:43.814Z,5.65
2023-04-21T17:35:29.843Z,5.30
2023-04-21T17:38:15.740Z,4.95
2023-04-21T17:41:02.090Z,6.05
2023-04-21T17:43:48.152Z,5.20
2023-04-21T17:46:34.483Z,5.75
2023-04-21T17:49:23.118Z,5.82
2023-04-21T17:52:09.259Z,6.07
2023-04-21T17:54:54.952Z,6.00
2023-04-21T17:57:40.773Z,6.82
2023-04-21T18:00:28.293Z,6.15
2023-04-21T18:03:14.736Z,5.88
2023-04-21T18:06:01.304Z,6.60
2023-04-21T18:08:47.369Z,6.35
2023-04-21T18:11:33.362Z,6.10
2023-04-21T18:14:19.293Z,6.75
2023-04-21T18:17:06.103Z,6.07
2023-04-21T18:19:52.041Z,6.40
2023-04-21T18:22:38.478Z,6.47
2023-04-21T18:25:40.644Z,6.05
2023-04-21T18:31:15.992Z,6.32
2023-04-21T18:34:02.077Z,5.88
2023-04-21T18:36:49.456Z,5.90
2023-04-21T18:39:35.193Z,7.05
2023-04-21T18:42:21.649Z,6.95
2023-04-21T18:45:10.855Z,6.60
2023-04-21T18:47:57.868Z,7.38
2023-04-21T18:50:43.756Z,6.75
2023-04-21T18:53:30.473Z,7.63
2023-04-21T18:56:16.787Z,6.75
2023-04-21T18:59:02.773Z,7.30
2023-04-21T19:01:49.081Z,7.68
2023-04-21T19:04:36.822Z,12.15
2023-04-21T19:07:28.009Z,9.13
2023-04-21T19:10:13.832Z,7.72
2023-04-21T19:13:01.586Z,7.50
2023-04-21T19:15:50.657Z,7.10
2023-04-21T19:18:36.704Z,7.93
2023-04-21T19:21:23.700Z,7.60
2023-04-21T19:24:09.420Z,7.85
2023-04-21T19:26:55.239Z,7.93
2023-04-21T19:29:41.592Z,8.23
2023-04-21T19:32:27.945Z,9.07
2023-04-21T19:35:14.041Z,7.78
2023-04-21T19:37:59.969Z,7.95
2023-04-21T19:40:45.990Z,9.57
2023-04-21T19:43:31.858Z,7.45
2023-04-21T19:46:17.773Z,7.38
2023-04-21T19:49:03.942Z,6.95
2023-04-21T19:51:51.855Z,7.47
2023-04-21T19:54:38.475Z,7.55
2023-04-21T19:57:25.886Z,6.90
2023-04-21T20:00:12.756Z,7.15
2023-04-21T20:02:59.004Z,6.90
2023-04-21T20:05:45.799Z,6.15
2023-04-21T20:08:31.847Z,6.93
2023-04-21T20:11:17.884Z,8.10
2023-04-21T20:14:04.272Z,7.70
2023-04-21T20:16:50.759Z,7.07
2023-04-21T20:19:40.386Z,7.00
2023-04-21T20:22:26.649Z,7.53
2023-04-21T20:25:13.570Z,6.93
2023-04-21T20:27:59.318Z,7.78
2023-04-21T20:30:45.798Z,7.25
2023-04-21T20:33:31.923Z,8.00
2023-04-21T20:36:18.525Z,7.57
2023-04-21T20:39:06.532Z,7.22
2023-04-21T20:42:04.709Z,7.53
2023-04-21T20:45:02.258Z,7.75
2023-04-21T20:47:48.429Z,7.78
2023-04-21T20:50:34.575Z,8.68
2023-04-21T20:53:21.103Z,7.63
2023-04-21T20:56:07.399Z,7.38
2023-04-21T20:58:53.366Z,9.00
2023-04-21T21:01:41.267Z,8.02
2023-04-21T21:04:27.433Z,8.57
2023-04-21T21:07:14.160Z,8.82
2023-04-21T21:10:00.152Z,10.13
2023-04-21T21:12:46.023Z,10.15
2023-04-21T21:15:31.811Z,10.68
2023-04-21T21:18:17.710Z,11.02
2023-04-21T21:21:06.714Z,12.50
2023-04-21T21:23:52.886Z,13.15
2023-04-21T21:26:42.537Z,10.93
2023-04-21T21:29:29.884Z,9.65
2023-04-21T21:32:16.039Z,10.00
2023-04-21T21:35:02.660Z,9.32
2023-04-21T21:37:48.837Z,9.32
2023-04-21T21:40:35.135Z,9.85
2023-04-21T21:43:21.044Z,10.45
2023-04-21T21:46:07.163Z,9.88
2023-04-21T21:48:54.131Z,9.98
2023-04-21T21:51:40.832Z,9.40
2023-04-21T21:54:28.256Z,9.93
2023-04-21T21:57:14.156Z,9.93
2023-04-21T22:00:02.735Z,9.10
2023-04-21T22:02:51.180Z,8.65
2023-04-21T22:05:38.159Z,8.90
2023-04-21T22:08:24.345Z,8.90
2023-04-21T22:11:10.070Z,8.70
2023-04-21T22:13:57.710Z,10.18
2023-04-21T22:16:46.808Z,9.05
2023-04-21T22:19:34.120Z,9.50
2023-04-21T22:22:20.709Z,8.90
2023-04-21T22:25:07.211Z,9.93
2023-04-21T22:27:57.701Z,9.30
2023-04-21T22:30:43.786Z,9.23
2023-04-21T22:33:29.369Z,8.50
2023-04-21T22:36:15.687Z,9.25
2023-04-21T22:39:01.841Z,8.40
2023-04-21T22:41:47.938Z,9.18
2023-04-21T22:44:34.102Z,9.30
2023-04-21T22:47:20.767Z,8.25
2023-04-21T22:50:07.917Z,9.25
2023-04-21T22:52:53.868Z,9.02
2023-04-21T22:55:40.281Z,8.90
2023-04-21T22:58:26.765Z,9.18
2023-04-21T23:01:12.829Z,8.70
2023-04-21T23:03:59.137Z,9.80
2023-04-21T23:06:45.419Z,9.73
2023-04-21T23:09:31.066Z,8.55
2023-04-21T23:12:16.933Z,9.18
2023-04-21T23:15:02.755Z,9.07
2023-04-21T23:17:49.008Z,8.35
2023-04-21T23:20:35.943Z,8.85
2023-04-21T23:23:21.896Z,9.25
2023-04-21T23:26:07.836Z,8.93
2023-04-21T23:28:53.798Z,8.60
2023-04-21T23:31:39.970Z,8.25
2023-04-21T23:34:25.956Z,8.15
2023-04-21T23:37:12.187Z,8.07
2023-04-21T23:39:58.099Z,7.63
2023-04-21T23:42:47.234Z,8.15
2023-04-21T23:45:34.512Z,8.27
2023-04-21T23:48:20.800Z,8.57
2023-04-21T23:51:07.336Z,8.23
2023-04-21T23:53:53.206Z,8.68
2023-04-21T23:56:39.375Z,7.60
2023-04-21T23:59:25.601Z,7.63
